Time;durP1;ratioP1;P1;durP2;ratioP2;P2;SDS_P1;SDS_P2;PMS_P1;PMS_P2;Temp;Humidity;BMP_temperature;BMP_pressure;BME280_temperature;BME280_humidity;BME280_pressure;Samples;Min_cycle;Max_cycle;Signal;HPM_P1;HPM_P2
2022/08/23 00:01:55;;;;;;;4.55;2.08;;;16.50;68.00;;;15.57;81.07;95944.97;5005020;28;20037;-65
2022/08/23 00:04:24;;;;;;;2.63;1.88;;;16.40;68.20;;;15.53;81.96;95943.78;5016509;28;20088;-65
2022/08/23 00:06:50;;;;;;;2.83;1.70;;;16.40;68.10;;;15.49;81.37;95937.31;4994378;28;20513;-65
2022/08/23 00:09:17;;;;;;;4.57;2.00;;;16.40;68.30;;;15.46;81.98;95943.06;5026615;28;20032;-65
2022/08/23 00:12:04;;;;;;;3.47;1.88;;;16.30;68.40;;;15.44;84.23;95939.84;5009517;28;20026;-65
2022/08/23 00:14:31;;;;;;;3.47;1.92;;;16.30;68.60;;;15.37;82.69;95939.91;5029338;28;20071;-65
2022/08/23 00:16:57;;;;;;;7.65;2.10;;;16.20;68.50;;;15.31;83.16;95936.31;5029834;28;20034;-64
2022/08/23 00:19:23;;;;;;;4.15;2.20;;;16.10;69.20;;;15.25;82.92;95939.03;5011951;28;20117;-65
2022/08/23 00:21:50;;;;;;;3.42;1.80;;;16.10;69.60;;;15.19;83.83;95932.81;5009867;28;20038;-64
2022/08/23 00:24:16;;;;;;;2.47;1.67;;;16.10;69.90;;;15.17;83.84;95934.06;4977858;28;20030;-65
2022/08/23 00:27:07;;;;;;;2.65;1.60;;;16.00;70.00;;;15.13;86.51;95938.16;4994071;28;20187;-67
2022/08/23 00:29:40;;;;;;;;;;;16.00;70.10;;;15.07;87.93;95942.50;5000877;28;20429;-65
2022/08/23 00:32:07;;;;;;;2.65;1.85;;;15.90;70.30;;;14.98;85.23;95947.28;4993316;28;19917;-64
2022/08/23 00:34:34;;;;;;;5.20;2.00;;;15.80;70.80;;;14.93;84.65;95954.25;5010176;28;20033;-65
2022/08/23 00:37:00;;;;;;;3.50;2.10;;;15.80;70.80;;;14.88;86.96;95946.16;4993000;28;20033;-64
2022/08/23 00:39:26;;;;;;;2.38;2.08;;;15.80;70.90;;;14.88;86.92;95956.75;5008871;28;20502;-65
2022/08/23 00:41:54;;;;;;;3.00;1.95;;;15.80;70.70;;;14.86;85.68;95942.94;4990710;28;20327;-65
2022/08/23 00:50:17;;;;;;;3.03;2.08;;;15.70;71.20;;;14.78;88.29;95951.97;5004884;28;20569;-64
2022/08/23 00:53:16;;;;;;;3.55;2.17;;;15.60;71.10;;;14.72;89.42;95944.09;4990571;28;20042;-64
2022/08/23 00:55:43;;;;;;;5.03;2.30;;;15.60;71.60;;;14.68;87.82;95946.34;4973960;28;20402;-65
2022/08/23 00:58:10;;;;;;;6.40;2.85;;;15.60;71.60;;;14.65;87.62;95942.31;4991482;28;20066;-65
2022/08/23 01:00:36;;;;;;;4.03;2.50;;;15.50;71.70;;;14.63;88.49;95941.72;4978760;28;20068;-64
2022/08/23 01:03:02;;;;;;;2.78;2.13;;;15.50;71.80;;;14.62;88.56;95948.03;4992539;28;20034;-64
2022/08/23 01:05:35;;;;;;;3.45;2.25;;;15.60;71.70;;;14.62;88.79;95953.34;4993208;28;20120;-65
2022/08/23 01:08:00;;;;;;;4.50;2.60;;;15.60;71.70;;;14.61;89.17;95951.72;4979829;28;20057;-65
2022/08/23 01:10:35;;;;;;;5.32;2.28;;;15.60;71.70;;;14.61;90.67;95957.00;5012422;28;20029;-64
2022/08/23 01:13:18;;;;;;;4.32;2.70;;;15.60;71.90;;;14.60;91.42;95950.09;5029001;28;20037;-64
2022/08/23 01:15:51;;;;;;;4.43;2.60;;;15.60;71.80;;;14.58;90.30;95946.88;5029018;28;20067;-67
2022/08/23 01:18:19;;;;;;;3.72;2.50;;;15.60;72.00;;;14.56;89.70;95956.06;5025235;28;20070;-67
2022/08/23 01:21:12;;;;;;;3.60;2.50;;;15.50;72.00;;;14.52;89.86;95958.31;5011686;28;20219;-64
2022/08/23 01:23:46;;;;;;;3.58;2.40;;;15.50;72.10;;;14.48;91.47;95951.81;5003209;28;20401;-65
2022/08/23 01:26:13;;;;;;;4.80;2.10;;;15.40;72.30;;;14.43;89.94;95953.47;5003741;28;20127;-65
2022/08/23 01:28:39;;;;;;;4.10;2.30;;;15.40;72.40;;;14.39;89.88;95947.81;5028654;28;20034;-65
2022/08/23 01:31:06;;;;;;;3.00;2.30;;;15.30;72.60;;;14.36;89.98;95950.88;5023792;28;20084;-65
2022/08/23 01:33:32;;;;;;;3.83;2.30;;;15.20;72.90;;;14.31;90.22;95956.84;5011950;28;20048;-65
2022/08/23 01:35:58;;;;;;;3.63;2.33;;;15.20;73.00;;;14.28;90.63;95956.47;5012229;28;20051;-65
2022/08/23 01:38:24;;;;;;;3.10;2.30;;;15.10;73.10;;;14.23;90.61;95959.72;5028407;28;20084;-64
2022/08/23 01:40:50;;;;;;;2.85;1.90;;;15.10;73.20;;;14.21;91.01;95956.50;5024467;28;20030;-64
2022/08/23 01:43:18;;;;;;;4.15;2.30;;;15.10;73.20;;;14.19;91.21;95960.38;4992771;28;20051;-64
2022/08/23 01:45:44;;;;;;;4.55;2.08;;;15.10;73.20;;;14.15;91.40;95962.66;5028714;28;20021;-65
2022/08/23 01:48:10;;;;;;;5.30;2.58;;;15.10;73.30;;;14.12;90.83;95957.78;5011291;28;20044;-65
2022/08/23 01:50:36;;;;;;;4.47;2.25;;;15.10;73.30;;;14.08;91.44;95959.25;5005783;28;20034;-65
2022/08/23 01:53:02;;;;;;;3.63;2.22;;;15.00;73.40;;;14.03;91.78;95951.97;5024564;28;20045;-64
2022/08/23 01:55:28;;;;;;;3.15;2.35;;;15.00;73.60;;;13.98;91.36;95957.06;5028588;28;20037;-64
2022/08/23 01:57:55;;;;;;;6.65;2.58;;;15.00;73.60;;;13.96;91.83;95959.09;5011123;28;20026;-64
2022/08/23 02:00:25;;;;;;;3.28;2.53;;;14.90;73.70;;;13.95;92.64;95960.13;5010449;28;20068;-65
2022/08/23 02:02:51;;;;;;;6.50;3.28;;;14.90;73.80;;;13.92;92.68;95957.91;5008507;28;20374;-65
2022/08/23 02:05:17;;;;;;;5.10;2.72;;;14.90;73.90;;;13.91;93.49;95969.50;5008350;28;20046;-66
2022/08/23 02:07:43;;;;;;;3.75;2.78;;;14.90;73.80;;;13.89;93.91;95961.00;5007420;28;20109;-65
2022/08/23 02:10:09;;;;;;;4.05;2.60;;;14.90;73.90;;;13.89;93.34;95963.63;5024698;28;20429;-66
2022/08/23 02:12:36;;;;;;;5.97;3.03;;;14.90;74.00;;;13.89;92.38;95966.28;5024420;28;20068;-66
2022/08/23 02:15:02;;;;;;;3.45;2.70;;;14.80;74.10;;;13.84;94.54;95963.47;5007984;28;20037;-66
2022/08/23 02:17:28;;;;;;;3.85;2.90;;;14.80;74.20;;;13.82;93.50;95965.50;5008629;28;20103;-66
2022/08/23 02:19:54;;;;;;;5.85;2.80;;;14.80;74.50;;;13.79;93.60;95960.63;5007386;28;20030;-66
2022/08/23 02:22:20;;;;;;;6.22;2.90;;;14.80;74.40;;;13.79;93.54;95957.97;5008662;28;20401;-66
2022/08/23 02:24:47;;;;;;;5.55;3.05;;;14.80;74.20;;;13.78;94.47;95964.28;5008603;28;20038;-65
2022/08/23 02:27:14;;;;;;;4.70;2.70;;;14.70;74.30;;;13.74;93.45;95961.25;4991701;28;20501;-66
2022/08/23 02:29:40;;;;;;;3.88;2.53;;;14.60;74.40;;;13.70;93.29;95969.84;5009048;28;20568;-65
2022/08/23 02:32:06;;;;;;;4.43;2.53;;;14.60;74.50;;;13.67;94.17;95964.97;5001003;28;20120;-66
2022/08/23 02:34:32;;;;;;;2.90;2.35;;;14.60;74.70;;;13.64;93.93;95968.03;5011921;28;20038;-66
2022/08/23 02:36:58;;;;;;;3.60;2.50;;;14.60;74.60;;;13.62;94.08;95967.44;5028045;28;20033;-65
2022/08/23 02:39:23;;;;;;;4.38;2.40;;;14.60;74.70;;;13.59;94.67;95973.16;5026583;28;20045;-65
2022/08/23 02:41:50;;;;;;;3.70;2.60;;;14.60;74.80;;;13.56;94.87;95976.19;5027932;28;20125;-66
2022/08/23 02:44:17;;;;;;;2.95;2.25;;;14.50;74.90;;;13.51;93.97;95970.72;5011849;28;20103;-65
2022/08/23 02:46:44;;;;;;;3.97;2.55;;;14.50;75.00;;;13.47;95.78;95975.63;5012003;28;20068;-66
2022/08/23 02:49:10;;;;;;;3.70;2.40;;;14.40;75.00;;;13.44;94.91;95982.16;5017244;28;20084;-65
2022/08/23 02:51:36;;;;;;;4.28;2.50;;;14.40;75.20;;;13.40;96.03;95983.59;4985684;28;20033;-66
2022/08/23 02:54:02;;;;;;;5.07;2.65;;;14.40;75.20;;;13.36;95.14;95974.47;4984529;28;20053;-66
2022/08/23 02:56:28;;;;;;;5.93;2.35;;;14.40;75.30;;;13.34;96.29;95975.69;4995354;28;20029;-65
2022/08/23 02:58:54;;;;;;;4.50;2.50;;;14.30;75.60;;;13.32;96.13;95978.53;5018280;28;20053;-66
2022/08/23 03:01:24;;;;;;;4.15;2.33;;;14.40;75.40;;;13.30;97.04;95980.56;5007772;28;20030;-65
2022/08/23 03:03:50;;;;;;;3.90;2.60;;;14.40;75.20;;;13.28;95.96;95987.09;4992224;28;20062;-66
2022/08/23 03:06:15;;;;;;;4.65;2.92;;;14.30;75.50;;;13.25;95.55;95988.31;4993841;28;20489;-67
2022/08/23 03:08:43;;;;;;;5.97;2.90;;;14.20;75.80;;;13.22;96.65;95995.84;4999730;28;20079;-66
2022/08/23 03:11:17;;;;;;;4.65;2.75;;;14.20;75.80;;;13.21;98.09;95991.59;5006974;28;20056;-65
2022/08/23 03:13:44;;;;;;;8.27;3.10;;;14.20;75.80;;;13.17;95.94;95997.28;5011511;28;20112;-66
2022/08/23 03:16:10;;;;;;;5.72;2.97;;;14.20;75.70;;;13.16;97.01;95997.47;5011545;28;20096;-66
2022/08/23 03:18:36;;;;;;;5.18;2.88;;;14.20;75.80;;;13.14;97.27;95996.84;5023128;28;20033;-65
2022/08/23 03:21:02;;;;;;;5.93;3.10;;;14.20;75.80;;;13.12;97.19;95998.88;5013162;28;20083;-66
2022/08/23 03:23:28;;;;;;;5.38;3.05;;;14.20;75.70;;;13.11;97.25;96000.69;5007354;28;20038;-66
2022/08/23 03:25:58;;;;;;;4.30;3.05;;;14.20;75.70;;;13.12;98.71;96010.25;4999253;28;20465;-65
2022/08/23 03:28:25;;;;;;;4.72;2.97;;;14.20;75.50;;;13.09;96.78;96009.84;5004511;28;20076;-66
2022/08/23 03:30:50;;;;;;;4.63;3.28;;;14.10;75.70;;;13.08;97.50;96013.50;5030914;28;20034;-66
2022/08/23 03:33:17;;;;;;;6.03;3.88;;;14.10;75.80;;;13.05;98.00;96003.38;5013902;28;20084;-66
2022/08/23 03:35:43;;;;;;;4.97;3.30;;;14.10;75.90;;;13.03;97.12;96002.75;5030982;28;20128;-65
2022/08/23 03:38:08;;;;;;;3.83;3.00;;;14.10;76.10;;;13.00;97.84;96009.28;5026234;28;20409;-65
2022/08/23 03:40:34;;;;;;;6.68;3.65;;;14.00;76.30;;;12.97;97.61;96016.78;5014141;28;20033;-65
2022/08/23 03:43:00;;;;;;;6.03;2.97;;;14.00;76.50;;;12.94;98.67;96015.38;5013768;28;20037;-65
2022/08/23 03:45:27;;;;;;;8.02;4.30;;;14.00;76.60;;;12.93;98.57;96019.03;5030724;28;20032;-65
2022/08/23 03:47:52;;;;;;;8.02;4.80;;;14.00;76.60;;;12.89;98.46;96015.97;5023447;28;20057;-66
2022/08/23 03:50:19;;;;;;;7.60;4.93;;;13.90;76.60;;;12.88;99.29;96016.19;5011850;28;20064;-66
2022/08/23 03:52:45;;;;;;;7.68;4.68;;;13.90;76.70;;;12.86;98.64;96016.38;5014168;28;20116;-66
2022/08/23 03:55:12;;;;;;;9.50;5.00;;;13.90;76.80;;;12.85;99.04;96022.69;5013621;28;20049;-66
2022/08/23 03:57:37;;;;;;;4.97;3.83;;;13.90;76.80;;;12.84;98.79;96023.69;5025704;28;20034;-66
2022/08/23 04:00:06;;;;;;;7.00;3.67;;;13.90;76.70;;;12.82;100.00;96014.38;5025901;28;20041;-65
2022/08/23 04:02:32;;;;;;;4.53;3.45;;;13.90;76.60;;;12.80;98.94;96022.50;5013935;28;20036;-66
2022/08/23 04:04:58;;;;;;;5.00;3.58;;;13.90;76.70;;;12.77;99.59;96022.91;5030248;28;20026;-66
2022/08/23 04:07:24;;;;;;;5.10;3.60;;;13.90;76.70;;;12.77;100.00;96022.91;5011158;28;20068;-66
2022/08/23 04:09:50;;;;;;;6.07;3.40;;;13.80;76.70;;;12.77;99.72;96025.53;5003872;28;20087;-66
2022/08/23 04:12:15;;;;;;;4.43;3.00;;;13.90;76.60;;;12.75;99.82;96030.22;4999977;28;20038;-66
2022/08/23 04:14:41;;;;;;;6.57;3.88;;;13.80;76.70;;;12.74;100.00;96027.78;4994126;28;20030;-65
2022/08/23 04:17:07;;;;;;;4.82;3.00;;;13.80;76.70;;;12.74;99.34;96027.78;4995165;28;20051;-66
2022/08/23 04:19:33;;;;;;;6.78;3.28;;;13.70;76.80;;;12.72;99.31;96033.28;5004626;28;20111;-65
2022/08/23 04:21:59;;;;;;;5.00;3.15;;;13.80;76.70;;;12.70;99.35;96043.22;5046372;28;20029;-65
2022/08/23 04:24:25;;;;;;;6.32;3.13;;;13.80;76.60;;;12.70;99.31;96045.84;5013667;28;20450;-65
2022/08/23 04:26:51;;;;;;;4.53;3.35;;;13.80;76.70;;;12.70;99.46;96047.69;5029217;28;20052;-65
2022/08/23 04:29:17;;;;;;;4.53;2.97;;;13.80;76.50;;;12.67;100.00;96048.88;5020013;28;20033;-66
2022/08/23 04:31:43;;;;;;;4.20;3.08;;;13.80;76.40;;;12.68;99.91;96039.16;5021465;28;20037;-65
2022/08/23 04:34:09;;;;;;;4.53;3.28;;;13.80;76.40;;;12.67;99.67;96048.88;5023816;28;20057;-66
2022/08/23 04:36:39;;;;;;;5.07;3.85;;;13.80;76.30;;;12.66;100.00;96041.97;5019681;28;20060;-66
2022/08/23 04:39:05;;;;;;;5.70;3.93;;;13.80;76.50;;;12.68;100.00;96050.53;5009830;28;20041;-65
2022/08/23 04:44:16;;;;;;;3.70;3.10;;;13.80;76.70;;;12.68;100.00;96050.53;5028213;28;20047;-65
2022/08/23 04:46:42;;;;;;;3.88;2.92;;;13.80;76.70;;;12.67;100.00;96048.88;4993527;28;20057;-65
2022/08/23 04:49:09;;;;;;;4.70;3.40;;;13.80;76.80;;;12.70;100.00;96050.31;5008979;28;20098;-66
2022/08/23 04:51:35;;;;;;;4.75;3.60;;;13.80;76.70;;;12.72;100.00;96051.75;5009931;28;20026;-66
2022/08/23 04:54:01;;;;;;;4.78;3.60;;;13.90;76.80;;;12.73;100.00;96044.63;5005874;28;20037;-66
2022/08/23 04:56:27;;;;;;;5.38;3.75;;;13.90;76.70;;;12.75;100.00;96051.34;5007041;28;20038;-65
2022/08/23 04:58:53;;;;;;;5.82;3.60;;;14.00;76.70;;;12.78;100.00;96061.47;4992673;28;20405;-65
2022/08/23 05:01:19;;;;;;;5.82;3.85;;;14.00;76.80;;;12.81;100.00;96062.91;5009257;28;20091;-66
2022/08/23 05:03:45;;;;;;;5.85;3.75;;;14.10;76.60;;;12.84;100.00;96071.22;5009503;28;20042;-66
2022/08/23 05:06:11;;;;;;;5.28;3.85;;;14.10;76.60;;;12.85;100.00;96075.47;5007307;28;20109;-66
2022/08/23 05:08:37;;;;;;;4.10;3.60;;;14.10;76.80;;;12.86;100.00;96074.47;5009222;28;20038;-66
2022/08/23 05:11:04;;;;;;;6.40;3.17;;;14.10;76.70;;;12.88;100.00;96076.91;5021748;28;20057;-65
2022/08/23 05:13:30;;;;;;;3.92;3.53;;;14.10;76.70;;;12.89;100.00;96074.06;5012357;28;20035;-65
2022/08/23 05:15:56;;;;;;;4.88;3.67;;;14.10;76.30;;;12.92;100.00;96078.13;5028297;28;20045;-66
2022/08/23 05:18:23;;;;;;;5.82;3.88;;;14.20;76.50;;;12.94;100.00;96078.75;5008756;28;20037;-66
2022/08/23 05:20:49;;;;;;;6.95;3.72;;;14.10;76.40;;;12.97;100.00;96080.16;5005983;28;20117;-66
2022/08/23 05:23:14;;;;;;;6.45;3.63;;;14.20;76.40;;;12.98;100.00;96081.78;4975287;28;20041;-66
2022/08/23 05:25:49;;;;;;;5.45;3.55;;;14.20;76.40;;;13.01;100.00;96086.66;4973440;28;20422;-66
2022/08/23 05:28:16;;;;;;;4.63;3.63;;;14.30;76.30;;;13.06;100.00;96089.50;5001938;28;20041;-66
2022/08/23 05:30:42;;;;;;;4.00;3.60;;;14.40;76.10;;;13.11;100.00;96090.50;5028831;28;20026;-66
2022/08/23 05:33:08;;;;;;;5.70;3.90;;;14.40;75.90;;;13.17;100.00;96096.81;5028028;28;20127;-65
2022/08/23 05:35:33;;;;;;;6.88;4.30;;;14.50;75.60;;;13.21;100.00;96103.31;5025239;28;20084;-65
2022/08/23 05:37:59;;;;;;;6.53;4.47;;;14.60;75.10;;;13.29;100.00;96094.38;5023416;28;20063;-66
2022/08/23 05:40:26;;;;;;;5.53;4.45;;;14.70;74.90;;;13.36;100.00;96106.56;5028724;28;20045;-65
2022/08/23 05:42:52;;;;;;;5.50;3.90;;;14.80;74.50;;;13.45;100.00;96104.50;5028380;28;20030;-65
2022/08/23 05:45:18;;;;;;;5.32;3.90;;;14.90;74.60;;;13.54;100.00;96097.97;5010503;28;20034;-65
2022/08/23 05:47:45;;;;;;;7.68;4.75;;;15.10;74.40;;;13.64;100.00;96100.19;5025017;28;20117;-65
2022/08/23 05:50:11;;;;;;;6.25;4.03;;;15.10;74.20;;;13.73;100.00;96097.09;5010243;28;20034;-65
2022/08/23 05:52:37;;;;;;;4.38;3.97;;;15.20;74.00;;;13.85;100.00;96099.94;4976477;28;20037;-65
2022/08/23 05:55:04;;;;;;;5.43;4.05;;;15.30;73.40;;;13.95;99.21;96104.75;5006296;28;20108;-65
2022/08/23 05:57:30;;;;;;;5.90;4.47;;;15.50;73.10;;;14.02;99.07;96111.63;5028189;28;20022;-65
2022/08/23 05:59:55;;;;;;;7.03;4.60;;;15.50;72.70;;;14.10;99.08;96108.78;5028392;28;20456;-66
2022/08/23 06:02:21;;;;;;;6.80;4.25;;;15.60;72.30;;;14.17;98.93;96108.72;5028644;28;20049;-65
2022/08/23 06:04:47;;;;;;;5.85;4.80;;;15.60;72.30;;;14.22;98.16;96116.03;5022466;28;20034;-66
2022/08/23 06:07:13;;;;;;;5.32;4.22;;;15.70;72.10;;;14.29;98.06;96108.88;5008051;28;20058;-66
2022/08/23 06:09:39;;;;;;;6.68;4.65;;;15.80;71.80;;;14.38;96.50;96110.25;5013540;28;20112;-66
2022/08/23 06:12:04;;;;;;;7.05;4.25;;;16.00;71.40;;;14.46;97.79;96115.31;5028196;28;20072;-65
2022/08/23 06:14:30;;;;;;;5.25;4.30;;;16.00;71.10;;;14.54;95.77;96115.09;5027605;28;20778;-65
2022/08/23 06:16:56;;;;;;;4.85;4.03;;;16.10;70.90;;;14.64;95.54;96115.41;5028138;28;20063;-66
2022/08/23 06:19:22;;;;;;;5.68;4.07;;;16.30;70.80;;;14.74;95.47;96120.25;5011379;28;20060;-66
2022/08/23 06:21:48;;;;;;;6.10;4.18;;;16.40;70.20;;;14.83;95.15;96112.84;5005724;28;20018;-65
2022/08/23 06:24:14;;;;;;;5.68;3.80;;;16.40;70.00;;;14.93;95.25;96115.81;5021930;28;20168;-65
2022/08/23 06:26:42;;;;;;;5.18;4.15;;;16.50;69.70;;;15.02;94.34;96117.19;4976257;28;20113;-67
2022/08/23 06:29:11;;;;;;;4.85;3.83;;;16.60;69.60;;;15.12;95.12;96120.16;4975380;28;20054;-66
2022/08/23 06:31:47;;;;;;;4.82;3.80;;;16.70;69.70;;;15.20;94.57;96119.91;4999135;28;20037;-65
2022/08/23 06:34:32;;;;;;;9.32;5.65;;;16.80;69.90;;;15.31;95.39;96119.16;5001616;28;20146;-65
2022/08/23 06:37:09;;;;;;;8.32;5.53;;;16.90;69.70;;;15.37;94.66;96120.13;5023353;28;20425;-65
2022/08/23 06:39:35;;;;;;;5.43;4.13;;;16.90;70.00;;;15.43;94.95;96123.78;4997600;28;20111;-65
2022/08/23 06:42:10;;;;;;;5.80;4.18;;;17.00;70.40;;;15.53;95.69;96118.78;4998925;28;20026;-65
2022/08/23 06:44:36;;;;;;;6.63;3.97;;;17.10;70.70;;;15.61;95.75;96115.84;4993046;28;20508;-65
2022/08/23 06:47:03;;;;;;;4.75;3.83;;;17.20;70.20;;;15.69;94.96;96120.06;5031091;28;20103;-65
2022/08/23 06:49:28;;;;;;;4.80;3.90;;;17.20;69.90;;;15.76;94.10;96124.25;5014851;28;20024;-65
2022/08/23 06:51:56;;;;;;;6.13;3.90;;;17.30;69.50;;;15.82;93.70;96128.69;5015052;28;20029;-65
2022/08/23 06:54:25;;;;;;;6.13;3.67;;;17.30;69.40;;;15.88;94.34;96127.81;5011828;28;20052;-66
2022/08/23 06:56:51;;;;;;;6.22;3.80;;;17.50;69.60;;;15.97;94.26;96124.84;4995530;28;20084;-65
2022/08/23 06:59:17;;;;;;;5.00;3.78;;;17.60;69.70;;;16.05;94.29;96122.69;5011108;28;20026;-66
2022/08/23 07:01:46;;;;;;;4.88;3.55;;;17.70;69.70;;;16.14;94.10;96121.38;5011666;28;20382;-65
2022/08/23 07:04:14;;;;;;;6.15;3.72;;;17.80;69.30;;;16.20;92.17;96120.47;4995132;28;20403;-66
2022/08/23 07:06:40;;;;;;;5.55;4.10;;;17.70;67.90;;;16.27;93.06;96117.75;5031533;28;20551;-66
2022/08/23 07:09:06;;;;;;;5.50;3.78;;;17.90;68.50;;;16.39;92.33;96128.44;5010600;28;20117;-66
2022/08/23 07:11:32;;;;;;;6.20;3.80;;;18.10;68.40;;;16.52;92.22;96134.38;5014378;28;20443;-65
2022/08/23 07:13:59;;;;;;;6.32;4.03;;;18.20;67.70;;;16.64;91.92;96130.94;5026858;28;20033;-65
2022/08/23 07:16:31;;;;;;;6.90;3.55;;;18.30;67.80;;;16.78;93.13;96127.09;4997541;28;20033;-66
2022/08/23 07:18:57;;;;;;;4.68;3.70;;;18.50;68.10;;;16.92;92.75;96133.00;5030393;28;20493;-66
2022/08/23 07:21:23;;;;;;;6.45;3.85;;;18.70;67.70;;;17.08;91.50;96138.47;5005910;28;20034;-66
2022/08/23 07:23:48;;;;;;;6.00;3.88;;;19.00;66.60;;;17.25;92.07;96127.19;5008492;28;20065;-65
2022/08/23 07:26:15;;;;;;;5.53;3.55;;;19.10;66.20;;;17.43;91.18;96135.06;5011822;28;20472;-65
2022/08/23 07:28:41;;;;;;;5.45;3.63;;;19.40;65.60;;;17.64;89.44;96133.66;5030839;28;20563;-66
2022/08/23 07:31:25;;;;;;;6.78;3.63;;;19.70;63.10;;;17.88;87.09;96137.13;5030321;28;20045;-66
2022/08/23 07:33:52;;;;;;;4.07;3.00;;;20.00;63.00;;;18.09;88.20;96141.84;5025071;28;20026;-66
2022/08/23 07:36:18;;;;;;;6.50;3.42;;;20.40;62.70;;;18.33;86.25;96140.75;5029908;28;20389;-65
2022/08/23 07:38:44;;;;;;;5.18;2.33;;;20.70;60.60;;;18.54;86.14;96136.59;5030711;28;20061;-65
2022/08/23 07:41:10;;;;;;;4.43;3.00;;;21.00;59.80;;;18.81;84.22;96142.22;5013900;28;20468;-65
2022/08/23 07:43:37;;;;;;;3.70;2.58;;;21.30;57.00;;;19.06;81.36;96149.84;5034560;28;20125;-66
2022/08/23 07:46:04;;;;;;;4.45;2.53;;;21.70;55.90;;;19.30;79.77;96139.81;5019343;28;20063;-65
2022/08/23 07:48:29;;;;;;;6.20;2.38;;;21.90;55.00;;;19.54;79.33;96138.63;5030511;28;20032;-66
2022/08/23 07:50:58;;;;;;;3.92;2.00;;;22.20;53.90;;;19.80;76.16;96144.34;5029967;28;20037;-65
2022/08/23 07:53:24;;;;;;;2.65;1.88;;;22.50;52.10;;;20.09;75.67;96148.47;5003077;28;20038;-65
2022/08/23 07:55:51;;;;;;;4.00;1.80;;;22.90;50.90;;;20.36;74.08;96150.38;4991141;28;20053;-65
2022/08/23 07:58:16;;;;;;;4.43;1.98;;;23.10;50.00;;;20.61;71.71;96150.72;5010437;28;20050;-66
2022/08/23 08:00:42;;;;;;;3.67;1.90;;;23.40;48.30;;;20.81;71.60;96150.13;5010627;28;20036;-66
2022/08/23 08:03:09;;;;;;;3.88;2.00;;;23.60;49.50;;;21.03;71.39;96147.38;5010078;28;20038;-66
2022/08/23 08:05:35;;;;;;;2.63;1.90;;;23.90;48.80;;;21.26;70.49;96151.63;5010184;28;20565;-66
2022/08/23 08:08:02;;;;;;;4.05;1.63;;;24.20;49.20;;;21.51;69.60;96153.72;5009981;28;20036;-66
2022/08/23 08:10:27;;;;;;;7.32;1.80;;;24.50;47.80;;;21.77;69.45;96155.50;5018811;28;20149;-66
2022/08/23 08:12:53;;;;;;;3.00;1.67;;;24.80;47.40;;;22.00;68.36;96152.44;5024521;28;20041;-65
2022/08/23 08:15:19;;;;;;;3.20;1.88;;;25.00;46.20;;;22.21;66.91;96157.94;5046519;28;20065;-66
2022/08/23 08:17:49;;;;;;;4.47;1.60;;;25.20;45.40;;;22.46;63.21;96147.31;5001281;28;20042;-66
2022/08/23 08:20:15;;;;;;;3.43;1.90;;;25.60;43.90;;;22.66;64.28;96153.81;5010808;28;20611;-66
2022/08/23 08:22:41;;;;;;;4.18;2.28;;;25.70;43.90;;;22.89;64.61;96150.69;5030225;28;20029;-66
2022/08/23 08:25:08;;;;;;;4.55;2.10;;;26.10;44.00;;;23.08;63.49;96161.69;5029398;28;20040;-66
2022/08/23 08:27:34;;;;;;;4.88;2.15;;;26.30;43.10;;;23.22;62.37;96158.22;5000936;28;20026;-66
2022/08/23 08:30:01;;;;;;;6.90;2.28;;;26.50;43.00;;;23.38;62.34;96153.69;4998360;28;20033;-65
2022/08/23 08:32:26;;;;;;;3.45;1.85;;;26.60;42.80;;;23.60;62.47;96164.19;4993890;28;20599;-66
2022/08/23 08:34:52;;;;;;;3.95;1.58;;;27.10;43.20;;;23.83;61.17;96163.63;5010009;28;20068;-66
2022/08/23 08:37:18;;;;;;;4.57;1.55;;;27.30;42.40;;;23.98;60.95;96164.66;5009626;28;20112;-66
2022/08/23 08:39:46;;;;;;;2.38;1.70;;;27.40;41.80;;;24.15;60.75;96165.16;5003089;28;20044;-66
2022/08/23 08:42:25;;;;;;;4.10;1.80;;;27.60;41.90;;;24.42;57.96;96165.63;5010386;28;20374;-65
2022/08/23 08:45:04;;;;;;;2.83;1.60;;;28.10;40.80;;;24.61;57.55;96162.31;5029709;28;20073;-65
2022/08/23 08:47:51;;;;;;;3.85;1.85;;;28.10;40.30;;;24.83;55.33;96159.25;5030859;28;20037;-66
2022/08/23 08:50:23;;;;;;;4.40;1.60;;;28.40;40.00;;;25.09;56.90;96162.63;5014303;28;20424;-66
2022/08/23 08:52:59;;;;;;;2.88;1.67;;;28.80;39.50;;;25.39;55.38;96164.31;5024085;28;20124;-66
2022/08/23 08:55:31;;;;;;;3.72;1.30;;;29.10;39.50;;;25.61;54.96;96157.38;4993449;28;20057;-66
2022/08/23 08:57:58;;;;;;;2.67;1.63;;;29.40;38.50;;;25.90;55.97;96156.59;5010438;28;20113;-65
2022/08/23 09:00:27;;;;;;;4.40;1.80;;;29.60;38.00;;;26.15;53.62;96159.03;5010214;28;20058;-66
2022/08/23 09:02:54;;;;;;;3.53;1.70;;;29.80;36.70;;;26.30;53.26;96160.75;5009036;28;20401;-66
2022/08/23 09:05:38;;;;;;;2.70;1.52;;;29.70;36.30;;;26.52;49.10;96158.38;5009489;28;20034;-66
2022/08/23 09:08:46;;;;;;;4.60;1.67;;;30.00;35.80;;;26.77;50.24;96159.94;5007353;28;20041;-66
2022/08/23 09:11:57;;;;;;;5.60;2.85;;;30.30;37.30;;;27.07;50.16;96147.13;5010650;28;20033;-66
2022/08/23 09:14:41;;;;;;;2.80;1.60;;;30.60;36.50;;;27.39;48.48;96149.06;5029116;28;20037;-66
2022/08/23 09:17:31;;;;;;;3.92;1.83;;;30.80;36.00;;;27.51;45.75;96154.00;5029156;28;20401;-66
2022/08/23 09:19:57;;;;;;;;;;;30.50;34.20;;;27.57;45.94;96144.72;5014877;28;20404;-66
2022/08/23 09:22:39;;;;;;;6.07;1.88;;;30.60;34.30;;;27.72;46.55;96149.91;5021000;28;20300;-66
2022/08/23 09:25:11;;;;;;;5.82;1.70;;;30.90;35.00;;;27.97;47.58;96149.44;5012599;28;20119;-66
2022/08/23 09:27:38;;;;;;;2.13;1.02;;;31.50;34.80;;;28.25;48.08;96144.88;5012607;28;20013;-66
2022/08/23 09:30:04;;;;;;;2.13;1.35;;;31.70;33.80;;;28.46;46.74;96145.28;5012742;28;20505;-66
2022/08/23 09:32:37;;;;;;;5.05;1.38;;;31.80;32.50;;;28.64;43.50;96141.66;5012703;28;20051;-66
2022/08/23 09:35:15;;;;;;;2.95;1.33;;;32.10;32.20;;;28.83;41.47;96143.44;5010613;28;20038;-65
2022/08/23 09:38:00;;;;;;;3.08;1.23;;;32.10;31.00;;;28.99;41.36;96141.22;5027824;28;20026;-66
2022/08/23 09:40:37;;;;;;;3.63;1.30;;;32.50;31.30;;;29.23;41.76;96147.97;5010405;28;20537;-66
2022/08/23 09:43:13;;;;;;;4.75;1.60;;;32.90;31.20;;;29.44;40.40;96139.34;5008518;28;20050;-66
2022/08/23 09:45:59;;;;;;;3.33;1.27;;;32.90;30.60;;;29.61;40.08;96142.19;5009549;28;20469;-66
2022/08/23 09:48:39;;;;;;;2.92;1.50;;;33.00;30.80;;;29.68;38.50;96136.34;5009325;28;20030;-66
2022/08/23 09:51:17;;;;;;;5.00;1.70;;;32.90;29.20;;;29.82;38.69;96137.84;5008550;28;20036;-66
2022/08/23 09:54:02;;;;;;;3.47;1.08;;;33.30;29.60;;;29.99;38.43;96142.56;5021831;28;20037;-66
2022/08/23 09:56:28;;;;;;;3.33;1.48;;;33.90;29.70;;;30.18;40.80;96134.22;5030958;28;20048;-66
2022/08/23 09:58:54;;;;;;;4.20;1.42;;;34.10;29.00;;;30.25;39.73;96131.06;4995448;28;20025;-66
2022/08/23 10:01:29;;;;;;;3.45;1.65;;;34.30;28.50;;;30.44;36.36;96131.59;5012009;28;20033;-66
2022/08/23 10:04:28;;;;;;;3.22;1.33;;;34.60;27.10;;;30.45;35.59;96125.84;5008959;28;20038;-67
2022/08/23 10:06:54;;;;;;;2.53;1.30;;;34.40;27.20;;;30.40;38.40;96126.00;5024028;28;20439;-67
2022/08/23 10:09:33;;;;;;;2.95;1.50;;;34.40;27.80;;;30.48;36.88;96130.66;5019158;28;20038;-66
2022/08/23 10:12:00;;;;;;;5.00;1.75;;;35.00;28.10;;;30.69;38.69;96128.19;5025328;28;20381;-65
2022/08/23 10:14:27;;;;;;;2.10;1.30;;;35.60;28.00;;;30.92;39.20;96133.47;4977663;28;20068;-65
2022/08/23 10:17:06;;;;;;;3.45;1.33;;;36.40;27.80;;;31.19;37.51;96129.69;5014169;28;20065;-66
2022/08/23 10:19:41;;;;;;;5.25;1.45;;;36.70;25.90;;;31.50;37.07;96115.91;5013552;28;20034;-65
2022/08/23 10:22:21;;;;;;;4.03;1.45;;;37.30;25.80;;;31.77;35.06;96118.28;5017555;28;20045;-65
2022/08/23 10:24:53;;;;;;;2.38;1.40;;;37.50;24.90;;;32.04;35.81;96122.50;5005279;28;20035;-65
2022/08/23 10:31:01;;;;;;;2.35;1.10;;;38.60;23.30;;;32.84;31.17;96112.53;5032988;28;20035;-66
2022/08/23 10:33:53;;;;;;;2.75;1.13;;;39.30;21.70;;;33.14;30.39;96110.53;5032260;28;20501;-66
2022/08/23 10:36:30;;;;;;;2.80;1.10;;;39.60;20.80;;;33.48;30.09;96114.91;5013658;28;20050;-66
2022/08/23 10:39:09;;;;;;;4.03;1.70;;;40.10;19.70;;;33.77;30.63;96107.72;5023474;28;20034;-65